Terminal Aerodrome Forecast
Issued by NWS Cleveland, OH

Home | Current Version | Previous Version | Graphics & Text | Print | Product List | Glossary On
Versions: 1 2 3 4 5 6 7 8 9 10 11 12 13 14 15 16 17 18 19 20 21 22
000
FTUS41 KCLE 202103 AAA
TAFERI
TAF AMD
KERI 202103Z 2021/2118 26005KT P6SM SCT025 BKN100
      TEMPO 2021/2022 BKN025
     FM210500 VRB03KT P6SM FEW040 SCT090
     FM211700 04007KT P6SM SCT150=

USA.gov is the U.S. government's official web portal to all federal, state and local government web resources and services.